createdAt,value
2023-03-29T00:01:07.714Z,17.61
2023-03-29T00:05:07.680Z,17.43
2023-03-29T00:09:07.710Z,17.17
2023-03-29T00:13:07.697Z,17.10
2023-03-29T00:17:07.845Z,17.06
2023-03-29T00:21:07.724Z,16.81
2023-03-29T00:25:07.716Z,16.38
2023-03-29T00:29:07.745Z,16.45
2023-03-29T00:33:07.826Z,16.06
2023-03-29T00:37:07.769Z,15.78
2023-03-29T00:41:07.788Z,15.73
2023-03-29T00:45:07.793Z,15.48
2023-03-29T00:49:07.835Z,15.18
2023-03-29T00:53:07.807Z,15.03
2023-03-29T00:57:07.860Z,15.05
2023-03-29T01:01:07.788Z,14.86
2023-03-29T01:05:07.850Z,14.52
2023-03-29T01:09:07.875Z,14.39
2023-03-29T01:13:07.900Z,14.45
2023-03-29T01:17:07.835Z,14.27
2023-03-29T01:21:07.860Z,14.15
2023-03-29T01:25:07.893Z,14.01
2023-03-29T01:29:07.875Z,13.96
2023-03-29T01:33:07.930Z,13.45
2023-03-29T01:37:07.916Z,13.39
2023-03-29T01:41:07.971Z,13.14
2023-03-29T01:45:07.961Z,12.87
2023-03-29T01:49:07.982Z,12.99
2023-03-29T01:53:07.970Z,12.89
2023-03-29T01:57:08.021Z,12.79
2023-03-29T02:01:08.030Z,12.59
2023-03-29T02:05:08.001Z,12.41
2023-03-29T02:09:08.033Z,12.18
2023-03-29T02:13:07.984Z,12.10
2023-03-29T02:17:08.008Z,12.15
2023-03-29T02:21:08.019Z,11.80
2023-03-29T02:25:08.030Z,11.82
2023-03-29T02:29:08.053Z,11.68
2023-03-29T02:33:08.073Z,11.47
2023-03-29T02:37:09.004Z,11.44
2023-03-29T02:41:08.062Z,11.37
2023-03-29T02:45:08.068Z,11.09
2023-03-29T02:49:08.076Z,11.06
2023-03-29T02:53:08.070Z,11.10
2023-03-29T02:57:08.167Z,11.12
2023-03-29T03:01:08.112Z,10.86
2023-03-29T03:05:08.122Z,10.75
2023-03-29T03:09:08.135Z,10.58
2023-03-29T03:13:08.143Z,10.44
2023-03-29T03:17:08.169Z,10.48
2023-03-29T03:21:08.175Z,10.34
2023-03-29T03:25:08.182Z,10.30
2023-03-29T03:29:08.203Z,10.04
2023-03-29T03:33:08.207Z,9.92
2023-03-29T03:37:08.200Z,9.73
2023-03-29T03:41:08.195Z,9.90
2023-03-29T03:45:08.221Z,9.75
2023-03-29T03:49:08.212Z,9.83
2023-03-29T03:53:08.239Z,9.42
2023-03-29T03:57:08.270Z,9.55
2023-03-29T04:01:08.250Z,9.37
2023-03-29T04:05:08.271Z,9.14
2023-03-29T04:09:08.273Z,9.11
2023-03-29T04:13:08.333Z,8.97
2023-03-29T04:17:08.300Z,8.84
2023-03-29T04:21:08.308Z,8.90
2023-03-29T04:25:08.655Z,8.86
2023-03-29T04:29:08.334Z,8.69
2023-03-29T04:33:08.471Z,8.63
2023-03-29T04:37:08.356Z,8.50
2023-03-29T04:41:08.372Z,8.34
2023-03-29T04:45:08.459Z,8.47
2023-03-29T04:49:08.402Z,8.34
2023-03-29T04:53:08.395Z,8.25
2023-03-29T04:57:08.450Z,8.18
2023-03-29T05:01:08.421Z,8.26
2023-03-29T05:05:08.448Z,8.06
2023-03-29T05:09:08.418Z,8.16
2023-03-29T05:13:08.442Z,8.15
2023-03-29T05:17:08.471Z,8.08
2023-03-29T05:21:08.437Z,8.04
2023-03-29T05:25:08.446Z,8.07
2023-03-29T05:29:08.449Z,8.10
2023-03-29T05:33:08.515Z,7.94
2023-03-29T05:37:08.502Z,7.78
2023-03-29T05:41:08.683Z,8.06
2023-03-29T05:45:08.699Z,8.50
2023-03-29T05:49:08.507Z,8.22
2023-03-29T05:53:08.662Z,8.78
2023-03-29T05:57:08.743Z,8.99
2023-03-29T06:01:08.664Z,9.32
2023-03-29T06:05:08.677Z,9.79
2023-03-29T06:09:08.686Z,10.61
2023-03-29T06:13:08.580Z,10.38
2023-03-29T06:17:08.648Z,10.55
2023-03-29T06:21:08.560Z,10.37
2023-03-29T06:25:08.587Z,10.35
2023-03-29T06:29:08.587Z,10.26
2023-03-29T06:33:08.654Z,10.34
2023-03-29T06:37:08.622Z,10.06
2023-03-29T06:41:08.634Z,10.32
2023-03-29T06:45:08.654Z,10.33
2023-03-29T06:49:08.705Z,10.56
2023-03-29T06:53:08.729Z,10.53
2023-03-29T06:57:08.784Z,10.51
2023-03-29T07:01:08.667Z,10.56
2023-03-29T07:05:09.294Z,11.06
2023-03-29T07:09:08.764Z,11.36
2023-03-29T07:13:09.217Z,11.70
2023-03-29T07:17:08.690Z,12.03
2023-03-29T07:21:08.707Z,13.14
2023-03-29T07:25:08.592Z,12.81
2023-03-29T07:29:08.708Z,13.22
2023-03-29T07:33:08.844Z,14.04
2023-03-29T07:37:08.500Z,14.62
2023-03-29T07:41:08.692Z,15.94
2023-03-29T07:45:08.807Z,17.11
2023-03-29T07:49:08.714Z,20.00
2023-03-29T07:53:08.834Z,23.27
2023-03-29T07:57:08.982Z,25.35
2023-03-29T08:01:10.908Z,28.42
2023-03-29T08:05:09.151Z,32.10
2023-03-29T08:09:08.944Z,35.67
2023-03-29T08:13:08.933Z,38.09
2023-03-29T08:17:08.950Z,42.02
2023-03-29T08:21:08.861Z,43.81
2023-03-29T08:25:08.851Z,45.50
2023-03-29T08:29:08.784Z,48.21
2023-03-29T08:33:08.786Z,50.68
2023-03-29T08:37:08.768Z,52.24
2023-03-29T08:41:08.644Z,48.43
2023-03-29T08:45:08.630Z,57.23
2023-03-29T08:49:08.757Z,76.93
2023-03-29T08:53:08.763Z,78.80
2023-03-29T08:57:08.584Z,88.69
2023-03-29T09:01:08.459Z,96.27
2023-03-29T09:05:08.543Z,98.70
2023-03-29T09:09:08.488Z,99.77
2023-03-29T09:13:08.774Z,102.66
2023-03-29T09:17:08.433Z,104.20
2023-03-29T09:21:08.386Z,103.85
2023-03-29T09:25:08.349Z,101.97
2023-03-29T09:29:09.735Z,102.07
2023-03-29T09:33:08.391Z,104.54
2023-03-29T09:37:08.224Z,103.62
2023-03-29T09:41:08.281Z,47.96
2023-03-29T09:45:08.252Z,43.51
2023-03-29T09:49:08.257Z,50.67
2023-03-29T09:53:08.335Z,36.25
2023-03-29T09:57:08.503Z,32.11
2023-03-29T10:01:08.715Z,28.42
2023-03-29T10:05:08.681Z,28.72
2023-03-29T10:09:08.794Z,25.45
2023-03-29T10:13:08.851Z,23.92
2023-03-29T10:17:08.952Z,23.22
2023-03-29T10:21:09.050Z,20.15
2023-03-29T10:25:09.136Z,20.67
2023-03-29T10:29:09.245Z,15.37
2023-03-29T10:33:09.430Z,14.38
2023-03-29T10:37:09.763Z,12.65
2023-03-29T10:41:09.801Z,7.35
2023-03-29T10:45:09.633Z,10.63
2023-03-29T10:49:10.757Z,12.47
2023-03-29T10:53:10.005Z,11.81
2023-03-29T10:57:10.204Z,10.03
2023-03-29T11:01:10.441Z,12.27
2023-03-29T11:05:10.451Z,12.33
2023-03-29T11:09:10.499Z,12.78
2023-03-29T11:13:10.525Z,12.28
2023-03-29T11:17:10.792Z,12.07
2023-03-29T11:21:10.985Z,11.41
2023-03-29T11:25:10.590Z,11.76
2023-03-29T11:29:10.803Z,10.69
2023-03-29T11:33:10.814Z,10.97
2023-03-29T11:37:10.552Z,12.08
2023-03-29T11:41:10.558Z,11.87
2023-03-29T11:45:10.607Z,9.03
2023-03-29T11:49:10.670Z,7.25
2023-03-29T11:53:10.871Z,5.67
2023-03-29T11:57:11.101Z,4.35
2023-03-29T12:01:11.200Z,3.33
2023-03-29T12:05:11.182Z,2.81
2023-03-29T12:09:11.158Z,2.32
2023-03-29T12:13:11.087Z,1.98
2023-03-29T12:17:11.068Z,1.71
2023-03-29T12:21:11.031Z,1.60
2023-03-29T12:25:10.973Z,1.41
2023-03-29T12:29:10.956Z,1.33
2023-03-29T12:33:12.982Z,1.17
2023-03-29T12:37:10.892Z,1.06
2023-03-29T12:41:10.866Z,0.92
2023-03-29T12:45:10.839Z,0.83
2023-03-29T12:49:10.785Z,0.88
2023-03-29T12:53:10.729Z,0.97
2023-03-29T12:57:10.751Z,1.01
2023-03-29T13:01:10.881Z,1.13
2023-03-29T13:05:10.705Z,1.15
2023-03-29T13:09:10.612Z,1.23
2023-03-29T13:13:10.564Z,1.53
2023-03-29T13:17:18.333Z,1.26
2023-03-29T13:21:11.493Z,1.02
2023-03-29T13:25:10.474Z,0.94
2023-03-29T13:29:10.417Z,1.37
2023-03-29T13:33:10.380Z,1.78
2023-03-29T13:37:10.327Z,2.10
2023-03-29T13:41:10.411Z,2.41
2023-03-29T13:45:10.368Z,2.76
2023-03-29T13:49:10.308Z,3.39
2023-03-29T13:53:10.273Z,3.95
2023-03-29T13:57:10.314Z,4.18
2023-03-29T14:01:10.251Z,4.45
2023-03-29T14:05:10.165Z,4.68
2023-03-29T14:09:10.180Z,4.85
2023-03-29T14:13:10.098Z,5.03
2023-03-29T14:17:10.055Z,5.04
2023-03-29T14:21:10.018Z,5.26
2023-03-29T14:25:09.995Z,5.27
2023-03-29T14:29:09.935Z,5.47
2023-03-29T14:33:10.312Z,5.60
2023-03-29T14:37:10.111Z,5.73
2023-03-29T14:41:10.058Z,5.90
2023-03-29T14:45:10.040Z,5.78
2023-03-29T14:49:09.970Z,5.93
2023-03-29T14:53:09.968Z,5.93
2023-03-29T14:57:10.007Z,5.99
2023-03-29T15:01:09.905Z,5.83
2023-03-29T15:05:09.850Z,5.85
2023-03-29T15:09:09.882Z,5.84
2023-03-29T15:13:09.775Z,5.78
2023-03-29T15:17:09.714Z,5.65
2023-03-29T15:21:09.710Z,5.56
2023-03-29T15:25:09.683Z,5.57
2023-03-29T15:29:09.651Z,5.45
2023-03-29T15:33:09.657Z,5.42
2023-03-29T15:37:09.600Z,5.25
2023-03-29T15:41:09.564Z,5.31
2023-03-29T15:45:09.478Z,5.23
2023-03-29T15:49:09.425Z,5.13
2023-03-29T15:53:15.186Z,5.08
2023-03-29T15:57:10.597Z,5.15
2023-03-29T16:01:09.416Z,5.10
2023-03-29T16:05:09.564Z,5.07
2023-03-29T16:09:09.536Z,4.97
2023-03-29T16:13:09.491Z,4.89
2023-03-29T16:17:09.465Z,4.83
2023-03-29T16:21:12.171Z,4.83
2023-03-29T16:25:09.434Z,4.79
2023-03-29T16:29:09.348Z,4.74
2023-03-29T16:33:09.375Z,4.73
2023-03-29T16:37:09.269Z,4.77
2023-03-29T16:41:09.217Z,4.68
2023-03-29T16:45:09.375Z,4.64
2023-03-29T16:49:09.168Z,4.56
2023-03-29T16:53:09.114Z,4.63
2023-03-29T16:57:09.147Z,4.60
2023-03-29T17:01:09.236Z,4.53
2023-03-29T17:05:09.094Z,4.43
2023-03-29T17:09:09.106Z,4.34
2023-03-29T17:13:09.033Z,4.29
2023-03-29T17:17:09.028Z,4.15
2023-03-29T17:21:08.944Z,4.00
2023-03-29T17:25:08.914Z,4.05
2023-03-29T17:29:08.878Z,3.96
2023-03-29T17:33:08.897Z,3.90
2023-03-29T17:37:08.863Z,3.91
2023-03-29T17:41:08.748Z,3.82
2023-03-29T17:45:08.962Z,3.84
2023-03-29T17:49:08.914Z,3.87
2023-03-29T17:53:08.894Z,3.72
2023-03-29T17:57:08.881Z,3.73
2023-03-29T18:01:08.845Z,3.66
2023-03-29T18:05:08.765Z,3.55
2023-03-29T18:09:08.740Z,3.50
2023-03-29T18:13:08.720Z,3.54
2023-03-29T18:17:08.739Z,3.46
2023-03-29T18:21:08.684Z,3.37
2023-03-29T18:25:08.692Z,3.37
2023-03-29T18:29:09.927Z,3.23
2023-03-29T18:33:08.675Z,3.35
2023-03-29T18:37:08.596Z,3.30
2023-03-29T18:41:08.665Z,3.38
2023-03-29T18:45:08.502Z,3.24
2023-03-29T18:49:08.713Z,3.20
2023-03-29T18:53:08.686Z,3.17
2023-03-29T18:57:08.753Z,3.16
2023-03-29T19:01:08.655Z,3.09
2023-03-29T19:05:08.601Z,3.07
2023-03-29T19:09:08.519Z,2.94
2023-03-29T19:13:08.523Z,2.98
2023-03-29T19:17:08.478Z,2.94
2023-03-29T19:21:08.431Z,2.90
2023-03-29T19:25:08.431Z,2.80
2023-03-29T19:29:08.353Z,2.74
2023-03-29T19:33:08.694Z,2.74
2023-03-29T19:37:08.809Z,2.83
2023-03-29T19:41:09.018Z,2.73
2023-03-29T19:45:09.234Z,2.75
2023-03-29T19:49:09.195Z,2.65
2023-03-29T19:53:09.141Z,2.62
2023-03-29T19:57:09.259Z,2.59
2023-03-29T20:01:09.041Z,2.60
2023-03-29T20:05:09.035Z,2.58
2023-03-29T20:09:08.997Z,2.57
2023-03-29T20:13:08.926Z,2.54
2023-03-29T20:17:08.901Z,2.45
2023-03-29T20:21:08.907Z,2.45
2023-03-29T20:25:08.847Z,2.39
2023-03-29T20:29:08.968Z,2.39
2023-03-29T20:33:08.993Z,2.38
2023-03-29T20:37:08.952Z,2.35
2023-03-29T20:41:08.881Z,2.35
2023-03-29T20:45:08.833Z,2.32
2023-03-29T20:49:08.870Z,2.32
2023-03-29T20:53:08.790Z,2.26
2023-03-29T20:57:08.739Z,2.25
2023-03-29T21:01:08.748Z,2.20
2023-03-29T21:05:08.682Z,2.23
2023-03-29T21:09:08.628Z,2.23
2023-03-29T21:13:08.734Z,2.23
2023-03-29T21:17:08.947Z,2.15
2023-03-29T21:21:09.112Z,2.19
2023-03-29T21:25:09.366Z,2.15
2023-03-29T21:29:09.501Z,2.14
2023-03-29T21:33:09.658Z,2.15
2023-03-29T21:37:09.811Z,2.09
2023-03-29T21:41:10.042Z,2.13
2023-03-29T21:45:09.986Z,2.04
2023-03-29T21:49:09.928Z,2.03
2023-03-29T21:53:09.932Z,2.03
2023-03-29T21:57:09.950Z,1.99
2023-03-29T22:01:09.932Z,2.00
2023-03-29T22:05:09.860Z,1.94
2023-03-29T22:09:09.780Z,1.96
2023-03-29T22:13:09.718Z,1.96
2023-03-29T22:17:09.728Z,1.95
2023-03-29T22:21:09.739Z,1.91
2023-03-29T22:25:09.684Z,1.88
2023-03-29T22:29:09.682Z,1.85
2023-03-29T22:33:09.641Z,1.88
2023-03-29T22:37:09.569Z,1.81
2023-03-29T22:41:09.569Z,1.82
2023-03-29T22:45:09.503Z,1.83
2023-03-29T22:49:09.486Z,1.77
2023-03-29T22:53:09.450Z,1.77
2023-03-29T22:57:09.434Z,1.77
2023-03-29T23:01:09.638Z,1.74
2023-03-29T23:05:09.397Z,1.73
2023-03-29T23:09:09.306Z,1.69
2023-03-29T23:13:09.317Z,1.70
2023-03-29T23:17:09.264Z,1.69
2023-03-29T23:21:09.239Z,1.63
2023-03-29T23:25:09.198Z,1.65
2023-03-29T23:29:09.199Z,1.67
2023-03-29T23:33:09.176Z,1.61
2023-03-29T23:37:09.096Z,1.63
2023-03-29T23:41:09.101Z,1.62
2023-03-29T23:45:09.076Z,1.61
2023-03-29T23:49:09.042Z,1.58
2023-03-29T23:53:09.040Z,1.58
2023-03-29T23:57:09.008Z,1.58
